Time;durP1;ratioP1;P1;durP2;ratioP2;P2;SDS_P1;SDS_P2;PMS_P1;PMS_P2;Temp;Humidity;BMP_temperature;BMP_pressure;BME280_temperature;BME280_humidity;BME280_pressure;Samples;Min_cycle;Max_cycle;Signal;HPM_P1;HPM_P2
2022/07/28 00:01:07;;;;;;;3.92;1.70;;;;;;;19.78;44.82;101858.25;5010363;28;20150;-65
2022/07/28 00:03:35;;;;;;;3.67;1.20;;;;;;;19.78;44.57;101858.25;5015366;28;20128;-65
2022/07/28 00:06:01;;;;;;;2.90;1.08;;;;;;;19.78;44.68;101859.13;5015430;28;20111;-65
2022/07/28 00:08:28;;;;;;;2.28;1.20;;;;;;;19.76;45.15;101849.38;5014921;28;20052;-64
2022/07/28 00:10:54;;;;;;;2.92;1.50;;;;;;;19.75;45.04;101847.66;5015212;28;20357;-65
2022/07/28 00:13:22;;;;;;;3.50;1.20;;;;;;;19.75;45.02;101853.97;5013946;28;20096;-65
2022/07/28 00:15:48;;;;;;;2.17;1.40;;;;;;;19.77;44.82;101860.13;5014521;28;20062;-65
2022/07/28 00:18:15;;;;;;;2.92;1.50;;;;;;;19.76;45.21;101866.59;5015258;28;20146;-65
2022/07/28 00:20:41;;;;;;;2.97;1.35;;;;;;;19.74;45.06;101859.56;5015242;28;20046;-65
2022/07/28 00:23:14;;;;;;;4.82;1.40;;;;;;;19.72;44.98;101862.41;5014663;28;20030;-65
2022/07/28 00:25:41;;;;;;;1.77;1.33;;;;;;;19.70;45.29;101863.56;5016868;28;20045;-65
2022/07/28 00:28:07;;;;;;;2.97;1.63;;;;;;;19.68;45.31;101858.25;5015445;28;20400;-65
2022/07/28 00:30:34;;;;;;;3.25;1.30;;;;;;;19.65;45.16;101853.97;5015498;28;20519;-65
2022/07/28 00:33:27;;;;;;;2.53;1.20;;;;;;;19.60;45.54;101845.34;5016685;28;20045;-65
2022/07/28 00:35:54;;;;;;;2.45;1.20;;;;;;;19.59;45.03;101845.50;5015473;28;20038;-66
2022/07/28 00:38:20;;;;;;;3.55;1.50;;;;;;;19.54;45.40;101840.47;5014613;28;20507;-65
2022/07/28 00:43:35;;;;;;;3.38;1.30;;;;;;;19.50;45.42;101844.47;5014882;28;20049;-65
2022/07/28 00:46:02;;;;;;;3.97;1.60;;;;;;;19.46;45.63;101826.69;5013856;28;20056;-65
2022/07/28 00:48:29;;;;;;;4.40;1.38;;;;;;;19.45;45.59;101822.22;5014571;28;20088;-65
2022/07/28 00:50:56;;;;;;;3.97;1.30;;;;;;;19.45;45.45;101829.53;5014446;28;20037;-66
2022/07/28 00:53:25;;;;;;;3.65;1.30;;;;;;;19.43;45.38;101826.97;5014395;28;20424;-65
2022/07/28 00:55:52;;;;;;;2.80;1.40;;;;;;;19.41;45.73;101834.41;5013227;28;20471;-65
2022/07/28 00:58:32;;;;;;;2.03;1.48;;;;;;;19.39;45.50;101841.00;4994720;28;20035;-66
2022/07/28 01:00:59;;;;;;;5.65;1.40;;;;;;;19.35;45.38;101829.53;4994749;28;20034;-65
2022/07/28 01:03:27;;;;;;;4.35;1.55;;;;;;;19.32;45.40;101837.97;4994650;28;20038;-66
2022/07/28 01:05:57;;;;;;;2.05;1.73;;;;;;;19.27;45.44;101830.22;4994826;28;20097;-66
2022/07/28 01:08:47;;;;;;;4.75;1.60;;;;;;;19.24;45.95;101822.31;5000258;28;20037;-65
2022/07/28 01:11:35;;;;;;;2.83;1.20;;;;;;;19.20;45.66;101836.38;5014156;28;20120;-65
2022/07/28 01:14:23;;;;;;;2.47;1.23;;;;;;;19.12;45.76;101837.06;5013321;28;20069;-65
2022/07/28 01:17:00;;;;;;;3.90;1.52;;;;;;;19.08;45.91;101835.63;5013935;28;20496;-65
2022/07/28 01:19:49;;;;;;;2.90;1.25;;;;;;;19.04;45.70;101829.59;5013990;28;20046;-65
2022/07/28 01:22:24;;;;;;;6.45;1.50;;;;;;;19.01;45.52;101820.84;5013851;28;20153;-65
2022/07/28 01:25:15;;;;;;;4.10;1.65;;;;;;;18.98;45.83;101818.41;5014184;28;20401;-65
2022/07/28 01:27:48;;;;;;;3.45;1.42;;;;;;;18.90;45.52;101816.41;5013928;28;20041;-65
2022/07/28 01:30:42;;;;;;;4.05;1.38;;;;;;;18.83;46.13;101820.66;5013665;28;20037;-65
2022/07/28 01:33:23;;;;;;;3.35;1.30;;;;;;;18.83;45.78;101815.22;5012643;28;20593;-65
2022/07/28 01:36:00;;;;;;;3.97;1.45;;;;;;;18.79;45.67;101815.66;5013273;28;20408;-65
2022/07/28 01:38:30;;;;;;;3.63;1.98;;;;;;;18.75;46.11;101823.22;5012562;28;20044;-64
2022/07/28 01:40:59;;;;;;;3.10;1.55;;;;;;;18.69;46.08;101818.34;5012582;28;20403;-65
2022/07/28 01:43:27;;;;;;;2.60;1.60;;;;;;;18.64;45.86;101810.59;5010986;28;20053;-65
2022/07/28 01:45:57;;;;;;;3.10;1.60;;;;;;;18.63;45.89;101808.88;5012074;28;20104;-65
2022/07/28 01:48:26;;;;;;;3.78;1.52;;;;;;;18.61;46.03;101807.25;5011242;28;20448;-65
2022/07/28 01:50:55;;;;;;;2.63;1.30;;;;;;;18.60;46.17;101806.38;5012044;28;20069;-65
2022/07/28 01:53:24;;;;;;;2.58;1.63;;;;;;;18.58;46.01;101810.22;5012237;28;20048;-64
2022/07/28 01:55:52;;;;;;;2.95;1.10;;;;;;;18.54;45.90;101809.63;5011793;28;20042;-65
2022/07/28 01:58:21;;;;;;;2.95;1.52;;;;;;;18.51;46.06;101809.03;5012308;28;20034;-65
2022/07/28 02:00:49;;;;;;;4.82;1.23;;;;;;;18.47;45.79;101804.88;5012167;28;20125;-65
2022/07/28 02:03:22;;;;;;;4.32;1.42;;;;;;;18.43;45.69;101804.28;5011975;28;20038;-65
2022/07/28 02:05:51;;;;;;;2.42;1.40;;;;;;;18.39;45.94;101803.69;5012139;28;20040;-66
2022/07/28 02:08:20;;;;;;;4.57;1.35;;;;;;;18.35;46.00;101806.81;5011638;28;20511;-65
2022/07/28 02:13:37;;;;;;;3.92;1.40;;;;;;;18.28;45.78;101811.09;5011918;28;20077;-65
2022/07/28 02:16:07;;;;;;;4.07;1.48;;;;;;;18.25;46.05;101804.06;5010169;28;20117;-64
2022/07/28 02:18:36;;;;;;;4.80;1.50;;;;;;;18.23;46.10;101806.06;5011938;28;20053;-65
2022/07/28 02:21:04;;;;;;;2.85;1.40;;;;;;;18.19;45.84;101801.88;5011523;28;20113;-64
2022/07/28 02:23:34;;;;;;;3.25;1.27;;;;;;;18.16;45.78;101801.28;5011790;28;20488;-65
2022/07/28 02:26:06;;;;;;;4.38;1.75;;;;;;;18.15;46.19;101794.13;5010750;28;20046;-65
2022/07/28 02:28:33;;;;;;;3.75;1.40;;;;;;;18.16;46.18;101798.56;5011784;28;20053;-65
2022/07/28 02:31:05;;;;;;;3.25;1.45;;;;;;;18.15;46.30;101789.56;5011630;28;20633;-65
2022/07/28 02:33:34;;;;;;;2.20;1.20;;;;;;;18.18;46.29;101788.44;5010199;28;20061;-65
2022/07/28 02:36:31;;;;;;;3.05;1.75;;;;;;;18.17;46.17;101787.56;5011264;28;20386;-65
2022/07/28 02:39:05;;;;;;;4.03;1.50;;;;;;;18.16;46.17;101784.97;5011472;28;20096;-64
2022/07/28 02:41:36;;;;;;;1.90;1.30;;;;;;;18.14;46.47;101779.69;5011599;28;20057;-65
2022/07/28 02:44:14;;;;;;;4.10;1.30;;;;;;;18.12;46.28;101776.22;5011449;28;20506;-65
2022/07/28 02:46:45;;;;;;;3.95;1.70;;;;;;;18.13;46.45;101783.41;5011097;28;20042;-64
2022/07/28 02:49:18;;;;;;;3.53;1.55;;;;;;;18.12;46.53;101783.53;5011063;28;20053;-65
2022/07/28 02:51:47;;;;;;;6.18;2.00;;;;;;;18.11;46.33;101793.53;5010988;28;20563;-65
2022/07/28 02:54:16;;;;;;;3.13;1.15;;;;;;;18.10;46.22;101789.09;5011329;28;20436;-65
2022/07/28 02:56:46;;;;;;;1.90;1.02;;;;;;;18.09;46.67;101781.94;5010883;28;20061;-65
2022/07/28 02:59:20;;;;;;;3.03;1.38;;;;;;;18.06;46.25;101780.34;5011061;28;20046;-65
2022/07/28 03:01:48;;;;;;;3.95;1.30;;;;;;;18.08;46.51;101772.06;5010799;28;20129;-66
2022/07/28 03:04:55;;;;;;;2.65;1.50;;;;;;;18.08;46.64;101783.78;5010570;28;20330;-64
2022/07/28 03:07:04;;;;;;;4.25;1.20;;;;;;;18.10;46.75;101781.81;5010945;28;20113;-65
2022/07/28 03:09:37;;;;;;;2.03;1.27;;;;;;;18.10;46.87;101784.53;5010846;28;20050;-65
2022/07/28 03:12:04;;;;;;;3.33;1.40;;;;;;;18.10;46.55;101784.53;5010816;28;20046;-65
2022/07/28 03:14:31;;;;;;;3.58;1.50;;;;;;;18.09;46.93;101780.09;5010462;28;20345;-66
2022/07/28 03:16:58;;;;;;;3.17;1.27;;;;;;;18.09;46.49;101788.25;5010518;28;20057;-65
2022/07/28 03:19:25;;;;;;;3.33;1.42;;;;;;;18.09;46.68;101787.38;5010768;28;20118;-66
2022/07/28 03:21:52;;;;;;;3.05;1.38;;;;;;;18.10;46.89;101786.38;5009295;28;20069;-65
2022/07/28 03:24:24;;;;;;;3.13;1.63;;;;;;;18.10;46.63;101794.53;5011372;28;20053;-65
2022/07/28 03:27:00;;;;;;;5.85;1.80;;;;;;;18.08;46.71;101791.94;5010518;28;20054;-65
2022/07/28 03:29:30;;;;;;;4.40;1.45;;;;;;;18.07;46.76;101797.53;5010777;28;20420;-65
2022/07/28 03:31:58;;;;;;;2.08;1.63;;;;;;;18.04;47.00;101790.50;5010215;28;20044;-66
2022/07/28 03:34:28;;;;;;;4.68;1.55;;;;;;;18.01;46.82;101800.78;5010782;28;20042;-65
2022/07/28 03:37:12;;;;;;;3.03;1.25;;;;;;;17.97;46.77;101808.34;5009823;28;20463;-64
2022/07/28 03:39:45;;;;;;;4.00;1.50;;;;;;;17.96;46.88;101803.03;5010372;28;20136;-65
2022/07/28 03:42:16;;;;;;;3.47;1.50;;;;;;;17.93;46.99;101803.31;5010712;28;20038;-65
2022/07/28 03:44:44;;;;;;;6.88;1.65;;;;;;;17.91;46.79;101817.03;5010585;28;20123;-65
2022/07/28 03:47:11;;;;;;;6.03;1.25;;;;;;;17.90;46.98;101806.28;5010721;28;20038;-65
2022/07/28 03:49:38;;;;;;;3.10;1.48;;;;;;;17.88;46.83;101806.41;5010132;28;20038;-66
2022/07/28 03:52:05;;;;;;;5.30;1.30;;;;;;;17.84;47.20;101806.81;5010218;28;20042;-65
2022/07/28 03:54:32;;;;;;;4.15;1.60;;;;;;;17.81;47.20;101810.63;5010547;28;20053;-65
2022/07/28 03:56:58;;;;;;;2.92;1.58;;;;;;;17.79;47.03;101810.75;5009228;28;20531;-64
2022/07/28 03:59:25;;;;;;;2.30;1.52;;;;;;;17.77;46.93;101812.75;5010414;28;20071;-64
2022/07/28 04:01:53;;;;;;;4.78;1.50;;;;;;;17.75;47.32;101813.88;5008579;28;20364;-65
2022/07/28 04:04:22;;;;;;;2.95;1.30;;;;;;;17.68;47.23;101813.53;5010550;28;20056;-65
2022/07/28 04:06:49;;;;;;;3.45;1.58;;;;;;;17.67;47.39;101813.66;5009953;28;20066;-64
2022/07/28 04:09:16;;;;;;;4.85;2.13;;;;;;;17.67;47.47;101808.25;5010296;28;20076;-65
2022/07/28 04:11:43;;;;;;;3.90;1.55;;;;;;;17.65;47.36;101807.47;5010000;28;20474;-65
2022/07/28 04:14:09;;;;;;;2.95;1.58;;;;;;;17.63;47.27;101807.59;5005384;28;20043;-65
2022/07/28 04:16:42;;;;;;;3.15;1.50;;;;;;;17.62;47.45;101807.75;4990785;28;20641;-65
2022/07/28 04:19:09;;;;;;;3.63;1.77;;;;;;;17.58;47.26;101801.72;4990570;28;20073;-65
2022/07/28 04:21:36;;;;;;;4.57;1.50;;;;;;;17.56;47.77;101800.97;4994141;28;20038;-65
2022/07/28 04:24:02;;;;;;;2.58;1.45;;;;;;;17.56;47.62;101791.97;5010365;28;20483;-64
2022/07/28 04:26:29;;;;;;;5.07;1.55;;;;;;;17.53;47.35;101794.94;5010221;28;20046;-65
2022/07/28 04:28:56;;;;;;;4.72;1.52;;;;;;;17.52;47.81;101796.81;5010281;28;20519;-64
2022/07/28 04:31:22;;;;;;;4.63;1.75;;;;;;;17.52;47.42;101791.38;5009703;28;20052;-65
2022/07/28 04:33:50;;;;;;;3.65;1.80;;;;;;;17.51;47.56;101786.94;5004952;28;20061;-66
2022/07/28 04:36:17;;;;;;;3.15;1.60;;;;;;;17.51;47.86;101800.50;5009909;28;20500;-65
2022/07/28 04:38:43;;;;;;;4.20;1.70;;;;;;;17.51;47.90;101789.66;5009879;28;20049;-65
2022/07/28 04:41:11;;;;;;;4.03;1.60;;;;;;;17.53;48.00;101786.81;5008692;28;20411;-65
2022/07/28 04:43:40;;;;;;;3.80;1.65;;;;;;;17.54;48.02;101789.38;5009419;28;20050;-66
2022/07/28 04:46:07;;;;;;;3.95;1.52;;;;;;;17.52;48.06;101783.22;4997743;28;20041;-66
2022/07/28 04:48:40;;;;;;;3.70;1.98;;;;;;;17.53;48.23;101793.09;5012006;28;20495;-66
2022/07/28 04:51:06;;;;;;;4.60;2.05;;;;;;;17.53;48.07;101790.38;5013534;28;20121;-66
2022/07/28 04:53:34;;;;;;;4.70;2.20;;;;;;;17.52;48.39;101794.09;5013444;28;20045;-65
2022/07/28 04:56:01;;;;;;;6.40;2.35;;;;;;;17.53;48.27;101794.94;5013319;28;20271;-65
2022/07/28 04:58:28;;;;;;;5.95;2.55;;;;;;;17.52;48.60;101790.50;5013246;28;20042;-65
2022/07/28 05:00:56;;;;;;;4.97;2.30;;;;;;;17.55;48.24;101793.81;5013138;28;20056;-65
2022/07/28 05:03:23;;;;;;;4.32;2.30;;;;;;;17.58;48.48;101790.84;5013160;28;20563;-65
2022/07/28 05:05:50;;;;;;;4.35;2.50;;;;;;;17.60;48.34;101788.84;5013269;28;20045;-65
2022/07/28 05:08:20;;;;;;;6.10;2.05;;;;;;;17.63;48.49;101785.00;5013120;28;20100;-66
2022/07/28 05:10:51;;;;;;;4.38;1.90;;;;;;;17.65;48.45;101789.31;5013163;28;20049;-66
2022/07/28 05:13:18;;;;;;;5.40;2.20;;;;;;;17.65;48.41;101791.19;5012957;28;20458;-67
2022/07/28 05:15:45;;;;;;;3.20;2.00;;;;;;;17.65;48.65;101786.59;5012666;28;20060;-66
2022/07/28 05:18:12;;;;;;;6.22;2.00;;;;;;;17.66;48.79;101788.38;5012864;28;20125;-66
2022/07/28 05:20:38;;;;;;;5.50;2.45;;;;;;;17.67;48.43;101795.53;5012835;28;20133;-67
2022/07/28 05:23:10;;;;;;;4.47;1.85;;;;;;;17.71;48.60;101791.53;5012996;28;20034;-66
2022/07/28 05:25:37;;;;;;;4.72;1.80;;;;;;;17.73;48.55;101791.41;5012324;28;20116;-67
2022/07/28 05:28:04;;;;;;;3.90;2.30;;;;;;;17.74;48.75;101795.84;5012710;28;20416;-65
2022/07/28 05:30:30;;;;;;;3.67;1.70;;;;;;;17.75;48.71;101803.88;5012756;28;20480;-65
2022/07/28 05:33:00;;;;;;;3.55;1.50;;;;;;;17.77;48.81;101791.00;5012765;28;20488;-66
2022/07/28 05:35:27;;;;;;;4.60;1.63;;;;;;;17.80;48.97;101789.88;5012473;28;20544;-65
2022/07/28 05:37:54;;;;;;;7.07;1.95;;;;;;;17.82;48.81;101793.34;5012448;28;20037;-66
2022/07/28 05:40:20;;;;;;;4.63;1.75;;;;;;;17.84;48.95;101791.38;5012188;28;20045;-66
2022/07/28 05:43:12;;;;;;;6.32;2.10;;;;;;;17.84;48.85;101794.09;5012355;28;20234;-66
2022/07/28 05:45:39;;;;;;;4.18;1.65;;;;;;;17.88;48.63;101802.84;5011491;28;20048;-66
2022/07/28 05:48:05;;;;;;;6.60;1.98;;;;;;;17.91;49.09;101794.41;5009072;28;20049;-67
2022/07/28 05:50:32;;;;;;;5.95;1.85;;;;;;;17.95;49.00;101798.59;5011891;28;20228;-66
2022/07/28 05:53:00;;;;;;;5.70;1.90;;;;;;;17.98;48.79;101795.63;5012049;28;20037;-66
2022/07/28 05:55:27;;;;;;;5.13;1.90;;;;;;;18.02;48.89;101797.06;5009854;28;20044;-66
2022/07/28 05:57:54;;;;;;;10.68;1.80;;;;;;;18.06;49.00;101795.81;5012060;28;20392;-66
2022/07/28 06:00:22;;;;;;;4.68;1.50;;;;;;;18.09;48.74;101799.13;5009643;28;20054;-66
2022/07/28 06:02:53;;;;;;;4.85;1.83;;;;;;;18.14;49.00;101804.16;5011862;28;20042;-66
2022/07/28 06:05:21;;;;;;;6.85;2.10;;;;;;;18.20;48.85;101808.19;5011930;28;20072;-67
2022/07/28 06:07:49;;;;;;;3.85;1.80;;;;;;;18.21;48.78;101808.03;5011933;28;20046;-66
2022/07/28 06:10:19;;;;;;;8.93;1.77;;;;;;;18.27;48.76;101799.34;5011972;28;20042;-66
2022/07/28 06:12:51;;;;;;;3.88;1.48;;;;;;;18.34;48.64;101805.09;5011926;28;20044;-67
2022/07/28 06:15:22;;;;;;;2.97;1.48;;;;;;;18.42;48.99;101806.13;5011820;28;20499;-66
2022/07/28 06:17:54;;;;;;;2.85;1.75;;;;;;;18.51;49.14;101809.03;5011450;28;20056;-66
2022/07/28 06:20:22;;;;;;;4.93;1.42;;;;;;;18.58;49.08;101802.94;5011823;28;20073;-66
2022/07/28 06:22:52;;;;;;;5.43;1.63;;;;;;;18.66;48.46;101799.56;5011757;28;20489;-66
2022/07/28 06:25:27;;;;;;;6.03;1.67;;;;;;;18.73;48.78;101801.59;5011187;28;20046;-66
2022/07/28 06:27:55;;;;;;;6.32;1.60;;;;;;;18.80;48.49;101807.34;5011653;28;20041;-67
2022/07/28 06:30:23;;;;;;;6.35;1.90;;;;;;;18.87;48.55;101813.09;5011549;28;20125;-66
2022/07/28 06:32:55;;;;;;;5.68;1.60;;;;;;;18.95;48.47;101811.38;5011637;28;20069;-66
2022/07/28 06:35:22;;;;;;;8.50;1.50;;;;;;;19.03;48.60;101805.25;5012839;28;20151;-66
2022/07/28 06:37:50;;;;;;;5.47;1.52;;;;;;;19.09;48.14;101801.97;5011377;28;20034;-67
2022/07/28 06:40:19;;;;;;;3.22;1.50;;;;;;;19.15;48.19;101797.81;5010295;28;20054;-66
2022/07/28 06:42:48;;;;;;;5.80;1.70;;;;;;;19.21;48.31;101792.66;5010767;28;20064;-67
2022/07/28 06:45:16;;;;;;;6.15;1.48;;;;;;;19.28;47.69;101796.53;5010822;28;20489;-68
2022/07/28 06:47:50;;;;;;;4.25;1.30;;;;;;;19.34;47.85;101797.84;5011315;28;20065;-67
2022/07/28 06:50:16;;;;;;;5.07;1.85;;;;;;;19.41;47.73;101795.41;5011358;28;20042;-67
2022/07/28 06:52:56;;;;;;;5.35;1.20;;;;;;;19.48;47.66;101794.69;5011411;28;20403;-67
2022/07/28 06:55:25;;;;;;;5.93;1.60;;;;;;;19.54;47.92;101801.47;5011223;28;20049;-67
2022/07/28 06:58:00;;;;;;;;;;;;;;;19.59;47.64;101802.75;5010671;28;20042;-67
2022/07/28 07:00:26;;;;;;;2.22;1.23;;;;;;;19.71;47.31;101798.00;5011229;28;19921;-68
2022/07/28 07:02:58;;;;;;;5.07;1.70;;;;;;;19.76;47.49;101790.25;5009509;28;20044;-68
2022/07/28 07:05:28;;;;;;;10.00;1.95;;;;;;;19.82;47.31;101799.72;5012395;28;20053;-68
2022/07/28 07:07:55;;;;;;;3.50;1.27;;;;;;;19.86;46.85;101799.28;5016506;28;20388;-69
2022/07/28 07:10:22;;;;;;;4.95;1.20;;;;;;;19.91;47.10;101793.38;5010645;28;20093;-69
2022/07/28 07:12:52;;;;;;;2.92;1.13;;;;;;;19.96;46.66;101794.66;5010909;28;20045;-69
2022/07/28 07:15:19;;;;;;;3.05;1.10;;;;;;;20.04;46.58;101793.94;5010478;28;20046;-69
2022/07/28 07:17:45;;;;;;;2.53;1.20;;;;;;;20.16;46.55;101794.66;5009839;28;20084;-69
2022/07/28 07:20:13;;;;;;;3.35;1.15;;;;;;;20.27;46.59;101789.00;5010507;28;20056;-70
2022/07/28 07:25:17;;;;;;;4.78;1.17;;;;;;;20.56;45.79;101784.31;5010706;28;20460;-68
2022/07/28 07:27:44;;;;;;;3.38;1.20;;;;;;;20.67;45.68;101783.25;5010937;28;20425;-69
2022/07/28 07:30:12;;;;;;;3.75;1.48;;;;;;;20.76;45.50;101776.88;5010672;28;20053;-68
2022/07/28 07:32:39;;;;;;;3.20;1.38;;;;;;;20.87;45.50;101787.63;5010312;28;20034;-67
2022/07/28 07:35:06;;;;;;;4.28;1.50;;;;;;;21.04;45.25;101796.00;5011191;28;20404;-68
2022/07/28 07:37:33;;;;;;;4.53;1.30;;;;;;;21.22;45.29;101797.78;5009153;28;20060;-69
2022/07/28 07:40:00;;;;;;;6.43;1.20;;;;;;;21.43;45.27;101789.25;5010245;28;20042;-68
2022/07/28 07:42:27;;;;;;;4.22;1.10;;;;;;;21.64;44.90;101785.38;5010062;28;20038;-68
2022/07/28 07:44:54;;;;;;;3.10;1.00;;;;;;;21.80;44.29;101789.09;5010633;28;20492;-69
2022/07/28 07:47:21;;;;;;;3.47;1.25;;;;;;;21.94;44.21;101795.84;5010290;28;20481;-69
2022/07/28 07:49:48;;;;;;;3.78;1.42;;;;;;;22.06;44.18;101782.81;5010032;28;20046;-68
2022/07/28 07:52:14;;;;;;;3.40;0.95;;;;;;;22.18;43.80;101781.50;5010075;28;20046;-68
2022/07/28 07:54:41;;;;;;;3.70;1.27;;;;;;;22.32;43.72;101783.69;5010499;28;20185;-69
2022/07/28 07:57:08;;;;;;;5.40;1.20;;;;;;;22.47;43.80;101783.91;5010422;28;20046;-68
2022/07/28 07:59:35;;;;;;;5.55;1.20;;;;;;;22.59;43.10;101773.53;5010096;28;20060;-68
2022/07/28 08:02:02;;;;;;;3.00;0.93;;;;;;;22.69;43.18;101783.31;5010023;28;20057;-68
2022/07/28 08:04:29;;;;;;;2.95;1.00;;;;;;;22.87;43.29;101786.00;5010392;28;20117;-67
2022/07/28 08:06:56;;;;;;;3.42;1.52;;;;;;;23.03;42.86;101779.69;5010284;28;20076;-68
2022/07/28 08:09:22;;;;;;;3.03;0.95;;;;;;;23.18;42.76;101772.56;5010485;28;20496;-67
2022/07/28 08:11:49;;;;;;;3.53;0.95;;;;;;;23.33;42.13;101776.34;5009795;28;20412;-69
2022/07/28 08:14:17;;;;;;;3.30;1.05;;;;;;;23.45;41.87;101772.25;5010074;28;20416;-68
2022/07/28 08:16:44;;;;;;;2.08;1.10;;;;;;;23.61;42.02;101773.31;5010043;28;20389;-68
2022/07/28 08:19:11;;;;;;;3.72;0.90;;;;;;;23.72;41.46;101772.97;5010046;28;20046;-68
2022/07/28 08:21:37;;;;;;;2.88;1.00;;;;;;;23.80;41.20;101767.50;5009580;28;20497;-68
2022/07/28 08:24:05;;;;;;;6.45;1.30;;;;;;;23.81;41.03;101768.34;5013431;28;20534;-69
2022/07/28 08:26:31;;;;;;;2.67;1.00;;;;;;;23.79;40.67;101765.78;5013862;28;20060;-68
2022/07/28 08:28:58;;;;;;;2.08;0.98;;;;;;;23.80;40.53;101762.00;5013795;28;20092;-68
2022/07/28 08:31:25;;;;;;;2.55;0.80;;;;;;;23.90;40.38;101756.34;5013599;28;20048;-68
2022/07/28 08:33:52;;;;;;;4.88;0.98;;;;;;;24.06;40.57;101751.69;5013682;28;20046;-68
2022/07/28 08:36:21;;;;;;;2.75;0.77;;;;;;;24.24;40.24;101753.34;5013875;28;20149;-68
2022/07/28 08:38:47;;;;;;;2.47;1.02;;;;;;;24.43;40.19;101744.72;5013399;28;20124;-68
2022/07/28 08:41:31;;;;;;;3.90;1.17;;;;;;;24.61;40.09;101747.25;5013515;28;20250;-68
2022/07/28 08:44:07;;;;;;;2.35;0.80;;;;;;;24.83;39.83;101756.56;5012380;28;20050;-68
2022/07/28 08:46:35;;;;;;;2.13;0.80;;;;;;;24.96;39.37;101765.09;5012321;28;20407;-68
2022/07/28 08:49:08;;;;;;;2.58;1.00;;;;;;;25.06;38.97;101764.88;5013370;28;20076;-69
2022/07/28 08:51:36;;;;;;;2.58;0.90;;;;;;;25.14;38.77;101762.94;5012924;28;20050;-68
2022/07/28 08:54:13;;;;;;;2.83;1.30;;;;;;;25.16;38.39;101755.38;5013521;28;20049;-68
2022/07/28 08:56:42;;;;;;;2.08;0.90;;;;;;;25.24;38.18;101755.31;5013301;28;20040;-68
2022/07/28 08:59:14;;;;;;;4.20;0.88;;;;;;;25.35;38.25;101756.81;5013154;28;20060;-69
2022/07/28 09:01:41;;;;;;;4.10;1.00;;;;;;;25.42;37.87;101760.53;5012980;28;20042;-68
2022/07/28 09:04:14;;;;;;;2.65;0.90;;;;;;;25.46;37.33;101756.38;5013662;28;20037;-69
2022/07/28 09:06:42;;;;;;;2.35;0.88;;;;;;;25.54;37.50;101752.69;5012930;28;20134;-68
2022/07/28 09:09:08;;;;;;;1.70;0.80;;;;;;;25.64;37.30;101754.16;5013220;28;20045;-68
2022/07/28 09:11:38;;;;;;;3.53;1.25;;;;;;;25.80;37.36;101747.66;5012894;28;20048;-68
2022/07/28 09:14:05;;;;;;;2.60;0.90;;;;;;;25.94;37.12;101752.34;5013153;28;20056;-69
2022/07/28 09:16:32;;;;;;;2.38;0.80;;;;;;;26.00;36.84;101752.63;5011553;28;20046;-69
2022/07/28 09:18:59;;;;;;;5.13;0.90;;;;;;;26.07;36.28;101748.13;5012844;28;20037;-68
2022/07/28 09:21:26;;;;;;;2.53;1.10;;;;;;;26.12;36.49;101751.16;5012624;28;20042;-69
2022/07/28 09:23:53;;;;;;;2.67;1.17;;;;;;;26.22;36.32;101748.97;5012794;28;20042;-68
2022/07/28 09:26:20;;;;;;;1.48;0.88;;;;;;;26.36;36.17;101750.03;5012940;28;20049;-69
2022/07/28 09:28:54;;;;;;;2.53;1.30;;;;;;;26.44;35.99;101738.94;5012540;28;20042;-68
2022/07/28 09:31:23;;;;;;;4.93;1.20;;;;;;;26.55;35.79;101747.56;5012710;28;20534;-69
2022/07/28 09:34:00;;;;;;;3.40;0.80;;;;;;;26.60;35.60;101736.81;5012307;28;20045;-69
2022/07/28 09:36:29;;;;;;;5.03;1.25;;;;;;;26.68;35.59;101729.47;5012693;28;20050;-68
2022/07/28 09:38:56;;;;;;;3.65;0.88;;;;;;;26.72;35.38;101726.16;5012681;28;20034;-69
2022/07/28 09:41:23;;;;;;;2.67;0.88;;;;;;;26.79;35.19;101731.78;5012385;28;20042;-69
2022/07/28 09:43:52;;;;;;;3.88;1.10;;;;;;;26.84;34.92;101730.13;5012381;28;20049;-68
2022/07/28 09:46:26;;;;;;;4.47;1.08;;;;;;;26.91;34.93;101719.19;5012368;28;20544;-69
2022/07/28 09:48:58;;;;;;;2.33;1.05;;;;;;;27.01;34.93;101714.25;5012606;28;20061;-69
2022/07/28 09:51:26;;;;;;;4.60;1.08;;;;;;;27.09;34.95;101710.50;5012133;28;20052;-68
2022/07/28 09:54:14;;;;;;;2.67;0.90;;;;;;;27.15;34.66;101699.53;5012201;28;20052;-68
2022/07/28 09:56:44;;;;;;;4.65;1.02;;;;;;;27.24;34.57;101705.78;5012220;28;20049;-69
2022/07/28 09:59:12;;;;;;;8.88;1.20;;;;;;;27.28;34.03;101701.56;5012245;28;20115;-69
2022/07/28 10:01:59;;;;;;;2.90;1.27;;;;;;;27.32;33.99;101705.63;5011858;28;20610;-69
2022/07/28 10:04:33;;;;;;;3.53;1.27;;;;;;;27.41;33.94;101712.72;5012172;28;20117;-68
2022/07/28 10:07:12;;;;;;;4.80;0.98;;;;;;;27.48;34.00;101693.47;5010815;28;20038;-69
2022/07/28 10:09:40;;;;;;;1.58;0.80;;;;;;;27.57;33.88;101697.81;5012376;28;20408;-69
2022/07/28 10:12:14;;;;;;;4.43;1.00;;;;;;;27.67;33.64;101686.47;5011688;28;20045;-69
2022/07/28 10:14:41;;;;;;;4.70;1.03;;;;;;;27.75;33.51;101687.16;5012001;28;20485;-69
2022/07/28 10:17:09;;;;;;;2.30;0.90;;;;;;;27.81;33.42;101685.50;5011882;28;20058;-69
2022/07/28 10:19:36;;;;;;;5.95;1.13;;;;;;;27.84;33.23;101683.19;5011549;28;20481;-69
2022/07/28 10:22:03;;;;;;;3.03;0.88;;;;;;;27.94;33.10;101681.97;5011515;28;20048;-68
2022/07/28 10:24:33;;;;;;;3.25;0.80;;;;;;;28.04;33.08;101687.97;5011965;28;20053;-68
2022/07/28 10:27:02;;;;;;;1.80;0.70;;;;;;;28.11;32.98;101669.53;5011947;28;20046;-68
2022/07/28 10:29:30;;;;;;;5.53;1.25;;;;;;;28.17;33.30;101680.59;5012038;28;20061;-69
2022/07/28 10:32:03;;;;;;;1.75;0.80;;;;;;;28.23;32.43;101684.50;5010028;28;20390;-69
2022/07/28 10:34:36;;;;;;;3.28;1.13;;;;;;;28.31;32.38;101683.50;5011881;28;20156;-68
2022/07/28 10:37:07;;;;;;;7.65;1.30;;;;;;;28.37;32.21;101683.53;5011855;28;20494;-69
2022/07/28 10:39:40;;;;;;;2.72;0.82;;;;;;;28.45;32.03;101680.59;5011667;28;20108;-69
2022/07/28 10:42:10;;;;;;;2.35;0.80;;;;;;;28.55;32.29;101682.13;5010928;28;20034;-69
2022/07/28 10:44:37;;;;;;;2.28;0.95;;;;;;;28.64;32.00;101675.34;5011376;28;20038;-67
2022/07/28 10:47:11;;;;;;;2.28;0.85;;;;;;;28.76;31.79;101682.81;5010892;28;20500;-67
2022/07/28 10:49:46;;;;;;;3.45;0.80;;;;;;;28.87;31.66;101675.84;5011903;28;20061;-67
2022/07/28 10:52:17;;;;;;;6.63;1.08;;;;;;;28.94;31.64;101676.72;5011132;28;20065;-67
2022/07/28 10:55:27;;;;;;;2.35;0.75;;;;;;;29.04;31.55;101666.13;5011363;28;20037;-66
2022/07/28 10:58:16;;;;;;;6.93;1.20;;;;;;;29.17;31.15;101665.28;5011392;28;20404;-67
2022/07/28 11:00:47;;;;;;;5.38;1.30;;;;;;;29.28;31.02;101672.97;5011311;28;20136;-67
2022/07/28 11:03:42;;;;;;;4.22;0.80;;;;;;;29.31;30.82;101657.84;5011260;28;20542;-67
2022/07/28 11:06:30;;;;;;;2.00;0.90;;;;;;;29.35;30.48;101672.97;5010869;28;20069;-67
2022/07/28 11:08:59;;;;;;;4.88;0.90;;;;;;;29.36;30.40;101666.38;5010797;28;20054;-67
2022/07/28 11:11:49;;;;;;;5.72;0.93;;;;;;;29.39;30.34;101668.69;5010745;28;20049;-67
2022/07/28 11:14:36;;;;;;;1.25;0.70;;;;;;;29.52;30.40;101663.19;5010968;28;20103;-67
2022/07/28 11:17:05;;;;;;;4.03;0.88;;;;;;;29.60;30.05;101665.75;5010951;28;20117;-67
2022/07/28 11:19:42;;;;;;;4.57;1.00;;;;;;;29.59;30.19;101650.19;5010331;28;20045;-72
2022/07/28 11:22:29;;;;;;;2.33;0.90;;;;;;;29.60;29.81;101657.44;5010321;28;20038;-70
2022/07/28 11:24:59;;;;;;;2.35;1.08;;;;;;;29.61;29.87;101649.97;5010730;28;20061;-70
2022/07/28 11:27:53;;;;;;;2.67;1.35;;;;;;;29.63;29.64;101634.84;5009428;28;20042;-69
2022/07/28 11:30:34;;;;;;;;;;;;;;;29.68;29.54;101643.38;5010189;28;20052;-70
2022/07/28 11:33:08;;;;;;;3.03;0.75;;;;;;;29.77;29.56;101637.63;5010024;28;19936;-70
2022/07/28 11:35:37;;;;;;;2.40;1.23;;;;;;;29.80;29.53;101642.75;5010507;28;20104;-70
2022/07/28 11:38:04;;;;;;;2.58;0.70;;;;;;;29.86;29.45;101641.88;5010357;28;20050;-70
2022/07/28 11:40:32;;;;;;;2.13;0.70;;;;;;;29.93;29.17;101642.69;5010095;28;20060;-70
2022/07/28 11:43:28;;;;;;;1.60;0.90;;;;;;;29.99;28.75;101645.44;5009820;28;20100;-70
2022/07/28 11:46:05;;;;;;;1.98;0.73;;;;;;;30.08;28.62;101632.25;5008888;28;20520;-70
2022/07/28 11:48:45;;;;;;;1.30;0.50;;;;;;;30.13;28.30;101623.28;5010471;28;20095;-70
2022/07/28 11:51:13;;;;;;;2.53;0.70;;;;;;;30.23;28.51;101624.50;5010337;28;20323;-70